createdAt,value
2018-07-06T00:00:40.161Z,968.8
2018-07-06T00:01:41.809Z,968.8
2018-07-06T00:02:43.472Z,968.8
2018-07-06T00:03:45.141Z,968.8
2018-07-06T00:04:46.813Z,968.8
2018-07-06T00:05:48.476Z,968.8
2018-07-06T00:06:50.138Z,968.8
2018-07-06T00:07:51.805Z,968.9
2018-07-06T00:08:53.473Z,968.9
2018-07-06T00:09:55.136Z,968.9
2018-07-06T00:10:56.817Z,968.9
2018-07-06T00:11:58.456Z,968.9
2018-07-06T00:13:00.119Z,968.9
2018-07-06T00:14:01.778Z,968.9
2018-07-06T00:15:03.435Z,968.9
2018-07-06T00:16:05.097Z,968.9
2018-07-06T00:17:06.795Z,968.9
2018-07-06T00:18:08.454Z,968.9
2018-07-06T00:19:10.115Z,968.9
2018-07-06T00:20:11.772Z,968.9
2018-07-06T00:21:13.431Z,968.9
2018-07-06T00:22:15.098Z,968.9
2018-07-06T00:23:16.760Z,968.9
2018-07-06T00:24:18.435Z,968.9
2018-07-06T00:25:20.098Z,968.9
2018-07-06T00:26:21.762Z,968.9
2018-07-06T00:27:23.433Z,968.8
2018-07-06T00:28:25.094Z,968.9
2018-07-06T00:29:26.745Z,968.8
2018-07-06T00:30:28.415Z,968.8
2018-07-06T00:31:30.072Z,968.8
2018-07-06T00:32:31.736Z,968.8
2018-07-06T00:33:33.399Z,968.9
2018-07-06T00:34:35.058Z,968.9
2018-07-06T00:35:36.726Z,968.9
2018-07-06T00:36:38.394Z,968.9
2018-07-06T00:37:40.059Z,968.9
2018-07-06T00:38:41.719Z,968.9
2018-07-06T00:39:43.390Z,968.9
2018-07-06T00:40:45.058Z,968.9
2018-07-06T00:41:46.720Z,968.9
2018-07-06T00:42:48.410Z,968.9
2018-07-06T00:43:50.098Z,968.9
2018-07-06T00:44:51.764Z,968.9
2018-07-06T00:45:53.410Z,968.9
2018-07-06T00:46:55.080Z,968.9
2018-07-06T00:47:56.740Z,968.9
2018-07-06T00:48:58.398Z,968.9
2018-07-06T00:50:00.060Z,968.9
2018-07-06T00:51:01.738Z,969.0
2018-07-06T00:52:03.408Z,969.0
2018-07-06T00:53:05.081Z,968.9
2018-07-06T00:54:06.758Z,968.9
2018-07-06T00:55:08.415Z,969.0
2018-07-06T00:56:10.073Z,968.9
2018-07-06T00:57:11.750Z,968.9
2018-07-06T00:58:13.399Z,969.0
2018-07-06T00:59:15.056Z,968.9
2018-07-06T01:00:16.730Z,969.0
2018-07-06T01:01:18.393Z,969.0
2018-07-06T01:02:20.053Z,969.0
2018-07-06T01:03:21.716Z,969.0
2018-07-06T01:04:23.378Z,969.0
2018-07-06T01:05:25.061Z,969.0
2018-07-06T01:06:26.725Z,969.0
2018-07-06T01:07:28.395Z,969.0
2018-07-06T01:08:30.062Z,969.0
2018-07-06T01:09:31.721Z,969.0
2018-07-06T01:10:33.384Z,969.0
2018-07-06T01:11:35.044Z,969.0
2018-07-06T01:12:36.714Z,969.0
2018-07-06T01:13:38.375Z,969.0
2018-07-06T01:14:40.038Z,969.0
2018-07-06T01:16:04.932Z,969.0
2018-07-06T01:17:06.623Z,969.0
2018-07-06T01:18:08.276Z,969.0
2018-07-06T01:19:09.976Z,969.1
2018-07-06T01:20:11.650Z,969.0
2018-07-06T01:21:13.319Z,969.0
2018-07-06T01:22:14.974Z,969.0
2018-07-06T01:23:16.645Z,968.9
2018-07-06T01:24:18.307Z,969.0
2018-07-06T01:25:19.974Z,969.0
2018-07-06T01:26:21.634Z,969.0
2018-07-06T01:27:23.296Z,969.0
2018-07-06T01:28:24.976Z,969.0
2018-07-06T01:29:27.523Z,969.0
2018-07-06T01:30:29.190Z,969.0
2018-07-06T01:31:30.843Z,969.0
2018-07-06T01:32:32.503Z,969.0
2018-07-06T01:33:34.166Z,969.0
2018-07-06T01:34:35.818Z,969.0
2018-07-06T01:35:37.481Z,969.0
2018-07-06T01:36:39.143Z,969.0
2018-07-06T01:37:40.799Z,969.0
2018-07-06T01:38:42.460Z,969.0
2018-07-06T01:39:44.125Z,969.0
2018-07-06T01:40:45.786Z,969.0
2018-07-06T01:41:47.464Z,969.0
2018-07-06T01:42:49.144Z,969.0
2018-07-06T01:43:50.813Z,969.0
2018-07-06T01:44:52.480Z,969.0
2018-07-06T01:45:54.140Z,969.1
2018-07-06T01:46:55.811Z,969.1
2018-07-06T01:47:57.477Z,969.1
2018-07-06T01:48:59.132Z,969.1
2018-07-06T01:50:00.805Z,969.1
2018-07-06T01:51:02.461Z,969.1
2018-07-06T01:52:04.128Z,969.1
2018-07-06T01:53:05.811Z,969.1
2018-07-06T01:54:07.467Z,969.1
2018-07-06T01:55:09.116Z,969.1
2018-07-06T02:01:01.820Z,969.1
2018-07-06T02:02:03.481Z,969.0
2018-07-06T02:03:55.372Z,969.1
2018-07-06T02:04:57.026Z,969.1
2018-07-06T02:06:48.943Z,969.1
2018-07-06T02:07:50.595Z,969.0
2018-07-06T02:09:42.500Z,969.0
2018-07-06T02:10:44.146Z,969.1
2018-07-06T02:11:45.799Z,969.1
2018-07-06T02:12:47.481Z,969.1
2018-07-06T02:13:49.128Z,969.1
2018-07-06T02:14:50.787Z,969.1
2018-07-06T02:15:52.435Z,969.1
2018-07-06T02:16:54.097Z,969.1
2018-07-06T02:17:55.756Z,969.0
2018-07-06T02:18:57.412Z,969.1
2018-07-06T02:19:59.063Z,969.1
2018-07-06T02:21:00.715Z,969.1
2018-07-06T02:22:02.367Z,969.1
2018-07-06T02:23:04.022Z,969.1
2018-07-06T02:24:05.685Z,969.1
2018-07-06T02:25:07.335Z,969.1
2018-07-06T02:26:08.993Z,969.1
2018-07-06T02:27:10.644Z,969.1
2018-07-06T02:28:12.300Z,969.1
2018-07-06T02:29:13.959Z,969.1
2018-07-06T02:30:15.617Z,969.2
2018-07-06T02:31:17.277Z,969.2
2018-07-06T02:32:18.931Z,969.2
2018-07-06T02:33:20.592Z,969.2
2018-07-06T02:34:22.250Z,969.2
2018-07-06T02:35:23.912Z,969.2
2018-07-06T02:36:25.560Z,969.2
2018-07-06T02:37:27.206Z,969.2
2018-07-06T02:38:28.877Z,969.2
2018-07-06T02:39:30.569Z,969.2
2018-07-06T02:40:32.185Z,969.2
2018-07-06T02:41:33.839Z,969.2
2018-07-06T02:42:35.488Z,969.2
2018-07-06T02:43:37.155Z,969.2
2018-07-06T02:44:38.805Z,969.2
2018-07-06T02:45:40.462Z,969.2
2018-07-06T02:46:42.113Z,969.2
2018-07-06T02:47:43.784Z,969.2
2018-07-06T02:48:45.443Z,969.2
2018-07-06T02:49:47.098Z,969.2
2018-07-06T02:50:48.770Z,969.3
2018-07-06T02:51:50.436Z,969.3
2018-07-06T02:52:52.091Z,969.3
2018-07-06T02:53:53.742Z,969.2
2018-07-06T02:54:55.408Z,969.2
2018-07-06T02:55:57.063Z,969.3
2018-07-06T02:56:58.723Z,969.2
2018-07-06T02:58:00.398Z,969.2
2018-07-06T02:59:02.050Z,969.2
2018-07-06T03:00:03.717Z,969.3
2018-07-06T03:01:05.374Z,969.2
2018-07-06T03:02:07.040Z,969.2
2018-07-06T03:03:08.697Z,969.2
2018-07-06T03:04:10.346Z,969.2
2018-07-06T03:05:12.007Z,969.2
2018-07-06T03:06:13.662Z,969.2
2018-07-06T03:07:15.319Z,969.2
2018-07-06T03:08:16.978Z,969.2
2018-07-06T03:09:18.632Z,969.2
2018-07-06T03:10:20.290Z,969.2
2018-07-06T03:11:21.963Z,969.2
2018-07-06T03:12:23.629Z,969.2
2018-07-06T03:13:25.279Z,969.2
2018-07-06T03:14:26.942Z,969.2
2018-07-06T03:15:28.600Z,969.3
2018-07-06T03:16:30.265Z,969.2
2018-07-06T03:17:31.917Z,969.2
2018-07-06T03:18:33.590Z,969.2
2018-07-06T03:19:35.249Z,969.3
2018-07-06T03:20:36.907Z,969.3
2018-07-06T03:21:38.581Z,969.3
2018-07-06T03:22:40.247Z,969.3
2018-07-06T03:23:41.900Z,969.3
2018-07-06T03:24:43.566Z,969.3
2018-07-06T03:26:04.206Z,969.3
2018-07-06T03:27:03.881Z,969.3
2018-07-06T03:28:05.578Z,969.4
2018-07-06T03:29:07.209Z,969.4
2018-07-06T03:30:08.863Z,969.4
2018-07-06T03:31:10.517Z,969.4
2018-07-06T03:32:12.185Z,969.4
2018-07-06T03:33:13.847Z,969.4
2018-07-06T03:34:15.523Z,969.4
2018-07-06T03:35:17.179Z,969.4
2018-07-06T03:36:18.845Z,969.4
2018-07-06T03:37:20.507Z,969.5
2018-07-06T03:38:22.165Z,969.4
2018-07-06T03:39:23.825Z,969.5
2018-07-06T03:40:25.500Z,969.5
2018-07-06T03:41:27.157Z,969.5
2018-07-06T03:42:28.824Z,969.5
2018-07-06T03:43:30.505Z,969.5
2018-07-06T03:44:32.150Z,969.5
2018-07-06T03:45:33.815Z,969.6
2018-07-06T03:46:35.476Z,969.5
2018-07-06T03:47:37.158Z,969.6
2018-07-06T03:48:38.807Z,969.6
2018-07-06T03:49:40.471Z,969.6
2018-07-06T03:50:42.132Z,969.6
2018-07-06T03:51:43.790Z,969.7
2018-07-06T03:52:45.446Z,969.6
2018-07-06T03:53:47.107Z,969.6
2018-07-06T03:54:48.781Z,969.6
2018-07-06T03:55:50.425Z,969.7
2018-07-06T03:56:52.093Z,969.6
2018-07-06T03:57:53.762Z,969.7
2018-07-06T03:58:55.423Z,969.7
2018-07-06T03:59:57.089Z,969.7
2018-07-06T04:00:58.778Z,969.8
2018-07-06T04:02:00.412Z,969.8
2018-07-06T04:03:02.073Z,969.8
2018-07-06T04:04:03.737Z,969.8
2018-07-06T04:05:05.400Z,969.8
2018-07-06T04:06:07.070Z,969.8
2018-07-06T04:07:08.734Z,969.8
2018-07-06T04:08:10.392Z,969.8
2018-07-06T04:09:12.081Z,969.8
2018-07-06T04:10:14.417Z,969.9
2018-07-06T04:11:16.076Z,969.9
2018-07-06T04:12:17.731Z,969.9
2018-07-06T04:13:19.405Z,969.9
2018-07-06T04:14:21.064Z,969.9
2018-07-06T04:15:22.727Z,969.9
2018-07-06T04:16:24.397Z,969.9
2018-07-06T04:17:26.058Z,969.9
2018-07-06T04:18:27.723Z,970.0
2018-07-06T04:19:29.383Z,970.0
2018-07-06T04:20:31.052Z,970.0
2018-07-06T04:21:32.708Z,970.0
2018-07-06T04:22:34.365Z,970.1
2018-07-06T04:23:36.034Z,970.1
2018-07-06T04:24:37.708Z,970.0
2018-07-06T04:25:39.370Z,970.0
2018-07-06T04:26:41.038Z,970.0
2018-07-06T04:27:42.711Z,970.1
2018-07-06T04:28:44.377Z,970.0
2018-07-06T04:29:46.046Z,970.0
2018-07-06T04:30:47.715Z,970.0
2018-07-06T04:31:49.376Z,970.0
2018-07-06T04:32:51.938Z,970.1
2018-07-06T04:33:53.595Z,970.1
2018-07-06T04:34:55.253Z,970.1
2018-07-06T04:35:56.920Z,970.1
2018-07-06T04:36:58.593Z,970.1
2018-07-06T04:38:00.267Z,970.1
2018-07-06T04:39:01.934Z,970.2
2018-07-06T04:40:03.596Z,970.2
2018-07-06T04:41:05.274Z,970.1
2018-07-06T04:42:06.961Z,970.2
2018-07-06T04:43:08.622Z,970.1
2018-07-06T04:44:10.338Z,970.2
2018-07-06T04:45:11.950Z,970.1
2018-07-06T04:46:13.633Z,970.2
2018-07-06T04:47:15.298Z,970.2
2018-07-06T04:48:16.961Z,970.1
2018-07-06T04:49:18.628Z,970.2
2018-07-06T04:50:20.288Z,970.1
2018-07-06T04:51:21.947Z,970.1
2018-07-06T04:52:23.607Z,970.2
2018-07-06T04:53:25.271Z,970.2
2018-07-06T04:54:26.935Z,970.2
2018-07-06T04:55:28.608Z,970.2
2018-07-06T04:56:30.274Z,970.2
2018-07-06T04:57:31.940Z,970.2
2018-07-06T04:58:33.595Z,970.2
2018-07-06T04:59:35.255Z,970.1
2018-07-06T05:00:36.914Z,970.2
2018-07-06T05:01:38.585Z,970.1
2018-07-06T05:02:40.253Z,970.2
2018-07-06T05:03:41.924Z,970.2
2018-07-06T05:04:43.574Z,970.2
2018-07-06T05:05:45.245Z,970.2
2018-07-06T05:06:46.926Z,970.2
2018-07-06T05:07:48.628Z,970.2
2018-07-06T05:08:50.255Z,970.2
2018-07-06T05:09:51.922Z,970.3
2018-07-06T05:10:53.596Z,970.2
2018-07-06T05:11:55.276Z,970.3
2018-07-06T05:12:56.929Z,970.2
2018-07-06T05:13:58.598Z,970.3
2018-07-06T05:15:00.279Z,970.3
2018-07-06T05:16:02.506Z,970.3
2018-07-06T05:17:04.245Z,970.3
2018-07-06T05:18:05.881Z,970.3
2018-07-06T05:19:07.505Z,970.4
2018-07-06T05:20:09.940Z,970.4
2018-07-06T05:21:11.604Z,970.4
2018-07-06T05:22:13.283Z,970.4
2018-07-06T05:23:14.952Z,970.4
2018-07-06T05:24:16.626Z,970.4
2018-07-06T05:25:18.283Z,970.4
2018-07-06T05:26:19.940Z,970.4
2018-07-06T05:27:21.615Z,970.4
2018-07-06T05:28:23.284Z,970.4
2018-07-06T05:29:24.956Z,970.4
2018-07-06T05:30:26.619Z,970.4
2018-07-06T05:31:28.289Z,970.4
2018-07-06T05:32:29.979Z,970.4
2018-07-06T05:33:31.647Z,970.4
2018-07-06T05:34:33.307Z,970.4
2018-07-06T05:35:34.979Z,970.4
2018-07-06T05:36:36.636Z,970.4
2018-07-06T05:37:38.302Z,970.5
2018-07-06T05:38:39.960Z,970.5
2018-07-06T05:39:42.471Z,970.5
2018-07-06T05:40:44.141Z,970.4
2018-07-06T05:41:45.825Z,970.5
2018-07-06T05:42:47.490Z,970.5
2018-07-06T05:43:49.180Z,970.5
2018-07-06T05:44:51.555Z,970.5
2018-07-06T05:45:53.983Z,970.5
2018-07-06T05:46:55.641Z,970.6
2018-07-06T05:47:57.316Z,970.6
2018-07-06T05:48:58.969Z,970.6
2018-07-06T05:50:00.627Z,970.6
2018-07-06T05:51:02.306Z,970.6
2018-07-06T05:52:03.962Z,970.6
2018-07-06T05:53:06.236Z,970.6
2018-07-06T05:54:07.241Z,970.6
2018-07-06T05:55:08.923Z,970.7
2018-07-06T06:01:50.576Z,970.8
2018-07-06T06:02:52.269Z,970.8
2018-07-06T06:03:53.951Z,970.7
2018-07-06T06:04:55.610Z,970.8
2018-07-06T06:05:57.272Z,970.8
2018-07-06T06:06:58.935Z,970.7
2018-07-06T06:08:00.600Z,970.8
2018-07-06T06:09:02.278Z,970.8
2018-07-06T06:10:03.950Z,970.8
2018-07-06T06:11:05.619Z,970.8
2018-07-06T06:12:07.301Z,970.9
2018-07-06T06:13:08.952Z,970.9
2018-07-06T06:14:10.612Z,971.0
2018-07-06T06:15:12.285Z,970.9
2018-07-06T06:16:13.956Z,971.0
2018-07-06T06:17:15.619Z,971.0
2018-07-06T06:18:17.285Z,971.0
2018-07-06T06:19:18.991Z,971.1
2018-07-06T06:20:20.650Z,971.1
2018-07-06T06:21:22.322Z,971.1
2018-07-06T06:22:24.745Z,971.1
2018-07-06T06:23:25.625Z,971.2
2018-07-06T06:24:27.286Z,971.1
2018-07-06T06:25:28.952Z,971.1
2018-07-06T06:26:30.635Z,971.1
2018-07-06T06:27:32.300Z,971.2
2018-07-06T06:28:33.961Z,971.2
2018-07-06T06:29:35.632Z,971.1
2018-07-06T06:30:37.453Z,971.1
2018-07-06T06:31:39.113Z,971.2
2018-07-06T06:32:40.789Z,971.2
2018-07-06T06:33:43.386Z,971.2
2018-07-06T06:34:44.985Z,971.2
2018-07-06T06:35:46.642Z,971.3
2018-07-06T06:36:48.318Z,971.4
2018-07-06T06:37:49.989Z,971.3
2018-07-06T06:38:51.649Z,971.4
2018-07-06T06:39:53.315Z,971.4
2018-07-06T06:40:54.981Z,971.4
2018-07-06T06:41:56.645Z,971.4
2018-07-06T06:42:58.317Z,971.4
2018-07-06T06:43:59.988Z,971.4
2018-07-06T06:45:02.180Z,971.4
2018-07-06T06:46:03.853Z,971.4
2018-07-06T06:47:05.520Z,971.3
2018-07-06T06:48:08.423Z,971.4
2018-07-06T06:49:10.096Z,971.3
2018-07-06T06:50:11.768Z,971.3
2018-07-06T06:51:13.462Z,971.3
2018-07-06T06:52:15.138Z,971.3
2018-07-06T06:53:16.807Z,971.3
2018-07-06T06:54:18.477Z,971.5
2018-07-06T06:55:20.149Z,971.4
2018-07-06T06:56:21.816Z,971.4
2018-07-06T06:57:23.493Z,971.4
2018-07-06T06:58:25.177Z,971.5
2018-07-06T06:59:27.708Z,971.5
2018-07-06T07:00:29.374Z,971.5
2018-07-06T07:01:31.049Z,971.4
2018-07-06T07:02:32.720Z,971.4
2018-07-06T07:03:34.388Z,971.5
2018-07-06T07:04:36.058Z,971.4
2018-07-06T07:05:37.729Z,971.4
2018-07-06T07:06:39.398Z,971.6
2018-07-06T07:07:41.085Z,971.6
2018-07-06T07:08:42.752Z,971.5
2018-07-06T07:09:44.410Z,971.6
2018-07-06T07:10:46.078Z,971.6
2018-07-06T07:11:47.751Z,971.7
2018-07-06T07:12:49.420Z,971.5
2018-07-06T07:13:51.145Z,971.5
2018-07-06T07:14:52.769Z,971.5
2018-07-06T07:15:54.444Z,971.5
2018-07-06T07:16:56.109Z,971.5
2018-07-06T07:17:57.776Z,971.5
2018-07-06T07:18:59.444Z,971.7
2018-07-06T07:20:01.234Z,971.7
2018-07-06T07:21:02.919Z,971.6
2018-07-06T07:22:04.566Z,971.6
2018-07-06T07:23:06.827Z,971.6
2018-07-06T07:24:08.490Z,971.7
2018-07-06T07:25:10.158Z,971.6
2018-07-06T07:26:11.836Z,971.7
2018-07-06T07:27:13.498Z,971.8
2018-07-06T07:28:15.167Z,971.8
2018-07-06T07:29:16.856Z,971.7
2018-07-06T07:30:18.529Z,971.7
2018-07-06T07:31:20.199Z,971.7
2018-07-06T07:32:21.870Z,971.8
2018-07-06T07:33:23.545Z,971.9
2018-07-06T07:34:25.219Z,972.0
2018-07-06T07:35:26.896Z,971.9
2018-07-06T07:36:28.562Z,972.1
2018-07-06T07:37:30.244Z,971.8
2018-07-06T07:38:32.802Z,971.7
2018-07-06T07:39:34.465Z,971.7
2018-07-06T07:40:36.138Z,971.8
2018-07-06T07:41:38.547Z,971.7
2018-07-06T07:42:40.222Z,971.9
2018-07-06T07:43:41.896Z,971.9
2018-07-06T07:44:43.564Z,971.9
2018-07-06T07:45:45.238Z,971.9
2018-07-06T07:46:46.903Z,971.9
2018-07-06T07:47:48.588Z,971.9
2018-07-06T07:48:50.261Z,971.9
2018-07-06T07:49:51.938Z,971.9
2018-07-06T07:50:53.593Z,972.0
2018-07-06T07:51:55.262Z,972.0
2018-07-06T07:52:56.928Z,972.0
2018-07-06T07:53:58.592Z,972.0
2018-07-06T07:55:00.282Z,972.0
2018-07-06T07:56:02.631Z,971.9
2018-07-06T07:57:04.300Z,972.0
2018-07-06T07:58:05.990Z,971.9
2018-07-06T07:59:08.317Z,971.9
2018-07-06T08:00:09.982Z,971.9
2018-07-06T08:01:12.592Z,971.9
2018-07-06T08:02:14.858Z,972.0
2018-07-06T08:03:16.542Z,972.0
2018-07-06T08:04:18.220Z,971.9
2018-07-06T08:05:19.909Z,971.9
2018-07-06T08:06:21.576Z,971.9
2018-07-06T08:07:23.248Z,971.9
2018-07-06T08:08:24.939Z,972.0
2018-07-06T08:09:26.612Z,972.2
2018-07-06T08:10:28.723Z,972.2
2018-07-06T08:11:35.444Z,972.2
2018-07-06T08:12:32.046Z,972.1
2018-07-06T08:13:33.721Z,972.1
2018-07-06T08:14:35.389Z,972.1
2018-07-06T08:15:37.063Z,972.1
2018-07-06T08:16:38.737Z,972.1
2018-07-06T08:17:40.416Z,972.0
2018-07-06T08:18:42.125Z,972.1
2018-07-06T08:19:43.786Z,972.1
2018-07-06T08:20:45.453Z,972.1
2018-07-06T08:21:47.116Z,972.0
2018-07-06T08:22:48.793Z,972.1
2018-07-06T08:23:50.532Z,972.0
2018-07-06T08:24:52.204Z,972.1
2018-07-06T08:25:53.873Z,972.1
2018-07-06T08:26:55.541Z,972.1
2018-07-06T08:27:57.257Z,972.1
2018-07-06T08:28:58.934Z,972.1
2018-07-06T08:30:00.594Z,972.2
2018-07-06T08:31:02.345Z,972.2
2018-07-06T08:32:04.010Z,972.2
2018-07-06T08:33:05.683Z,972.3
2018-07-06T08:34:07.356Z,972.3
2018-07-06T08:35:09.016Z,972.2
2018-07-06T08:36:10.788Z,972.4
2018-07-06T08:37:12.634Z,972.4
2018-07-06T08:38:14.303Z,972.4
2018-07-06T08:39:16.517Z,972.4
2018-07-06T08:40:18.193Z,972.3
2018-07-06T08:41:19.870Z,972.4
2018-07-06T08:42:21.564Z,972.4
2018-07-06T08:43:23.238Z,972.4
2018-07-06T08:44:24.913Z,972.4
2018-07-06T08:45:26.593Z,972.4
2018-07-06T08:46:29.178Z,972.5
2018-07-06T08:47:30.854Z,972.5
2018-07-06T08:48:32.527Z,972.5
2018-07-06T08:49:34.887Z,972.5
2018-07-06T08:50:36.567Z,972.6
2018-07-06T08:51:38.238Z,972.5
2018-07-06T08:52:39.909Z,972.5
2018-07-06T08:53:41.587Z,972.6
2018-07-06T08:54:43.270Z,972.6
2018-07-06T08:55:44.945Z,972.6
2018-07-06T08:56:46.621Z,972.4
2018-07-06T08:57:48.292Z,972.4
2018-07-06T08:58:49.949Z,972.4
2018-07-06T08:59:51.638Z,972.4
2018-07-06T09:00:53.316Z,972.6
2018-07-06T09:01:54.993Z,972.6
2018-07-06T09:02:56.668Z,972.5
2018-07-06T09:03:59.033Z,972.4
2018-07-06T09:05:00.707Z,972.6
2018-07-06T09:06:02.384Z,972.5
2018-07-06T09:07:04.064Z,972.8
2018-07-06T09:08:06.293Z,972.7
2018-07-06T09:09:07.383Z,972.7
2018-07-06T09:10:09.049Z,972.8
2018-07-06T09:11:10.721Z,972.8
2018-07-06T09:12:12.417Z,973.1
2018-07-06T09:13:14.143Z,973.0
2018-07-06T09:14:15.832Z,972.9
2018-07-06T09:15:17.514Z,973.1
2018-07-06T09:16:19.200Z,973.1
2018-07-06T09:17:20.867Z,972.9
2018-07-06T09:18:22.549Z,973.2
2018-07-06T09:19:24.250Z,973.0
2018-07-06T09:20:25.914Z,972.9
2018-07-06T09:21:27.588Z,973.0
2018-07-06T09:22:29.272Z,972.9
2018-07-06T09:23:30.993Z,972.8
2018-07-06T09:24:32.668Z,972.7
2018-07-06T09:25:34.387Z,973.1
2018-07-06T09:26:36.041Z,973.0
2018-07-06T09:27:37.712Z,973.1
2018-07-06T09:28:39.392Z,973.2
2018-07-06T09:29:41.065Z,973.0
2018-07-06T09:30:42.754Z,973.0
2018-07-06T09:31:44.442Z,973.1
2018-07-06T09:32:46.112Z,973.1
2018-07-06T09:33:47.808Z,973.0
2018-07-06T09:34:49.526Z,973.0
2018-07-06T09:35:51.242Z,973.0
2018-07-06T09:36:52.880Z,973.1
2018-07-06T09:37:54.559Z,973.0
2018-07-06T09:38:56.253Z,973.0
2018-07-06T09:39:57.974Z,973.0
2018-07-06T09:40:59.661Z,973.0
2018-07-06T09:42:01.336Z,973.2
2018-07-06T09:43:03.015Z,973.0
2018-07-06T09:44:04.732Z,973.1
2018-07-06T09:45:06.433Z,973.2
2018-07-06T09:46:08.114Z,973.0
2018-07-06T09:47:10.020Z,973.1
2018-07-06T09:48:12.500Z,972.9
2018-07-06T09:49:15.375Z,973.1
2018-07-06T09:50:27.288Z,972.9
2018-07-06T09:51:28.966Z,973.1
2018-07-06T09:52:30.672Z,972.9
2018-07-06T09:53:32.341Z,973.2
2018-07-06T09:54:34.022Z,973.1
2018-07-06T09:55:35.693Z,972.9
2018-07-06T10:01:31.030Z,973.1
2018-07-06T10:02:32.692Z,973.0
2018-07-06T10:04:25.492Z,972.9
2018-07-06T10:05:26.991Z,973.0
2018-07-06T10:06:28.670Z,973.0
2018-07-06T10:07:30.338Z,973.0
2018-07-06T10:08:32.006Z,973.0
2018-07-06T10:09:33.682Z,972.8
2018-07-06T10:10:35.345Z,972.9
2018-07-06T10:11:37.018Z,972.8
2018-07-06T10:12:38.797Z,973.0
2018-07-06T10:13:40.367Z,973.0
2018-07-06T10:14:42.029Z,972.8
2018-07-06T10:15:43.707Z,973.0
2018-07-06T10:16:45.416Z,972.9
2018-07-06T10:17:47.058Z,972.8
2018-07-06T10:18:48.727Z,973.0
2018-07-06T10:19:50.464Z,973.0
2018-07-06T10:20:52.077Z,973.1
2018-07-06T10:21:53.801Z,973.0
2018-07-06T10:22:55.427Z,972.9
2018-07-06T10:23:57.115Z,973.0
2018-07-06T10:24:58.788Z,973.0
2018-07-06T10:26:00.471Z,973.0
2018-07-06T10:27:02.161Z,973.0
2018-07-06T10:28:03.845Z,973.0
2018-07-06T10:29:05.506Z,973.1
2018-07-06T10:30:07.190Z,973.1
2018-07-06T10:31:08.872Z,972.9
2018-07-06T10:32:10.547Z,972.9
2018-07-06T10:33:12.254Z,973.2
2018-07-06T10:34:13.909Z,973.1
2018-07-06T10:35:15.594Z,973.1
2018-07-06T10:36:17.277Z,973.2
2018-07-06T10:37:18.965Z,973.2
2018-07-06T10:38:20.645Z,973.1
2018-07-06T10:39:22.366Z,973.4
2018-07-06T10:40:24.025Z,973.0
2018-07-06T10:41:25.703Z,972.9
2018-07-06T10:42:27.411Z,973.0
2018-07-06T10:43:29.081Z,973.2
2018-07-06T10:44:30.760Z,973.2
2018-07-06T10:45:32.442Z,973.2
2018-07-06T10:46:34.125Z,973.2
2018-07-06T10:47:35.808Z,973.3
2018-07-06T10:48:37.473Z,973.4
2018-07-06T10:49:39.156Z,973.2
2018-07-06T10:50:40.837Z,973.3
2018-07-06T10:51:42.518Z,973.4
2018-07-06T10:52:44.199Z,973.5
2018-07-06T10:53:45.888Z,973.3
2018-07-06T10:54:47.564Z,973.1
2018-07-06T10:55:49.248Z,973.2
2018-07-06T10:56:50.962Z,973.2
2018-07-06T10:57:52.636Z,973.3
2018-07-06T10:58:54.333Z,973.3
2018-07-06T10:59:56.011Z,973.4
2018-07-06T11:00:57.680Z,973.3
2018-07-06T11:01:59.358Z,973.4
2018-07-06T11:03:01.038Z,973.5
2018-07-06T11:04:02.719Z,973.5
2018-07-06T11:05:04.442Z,973.5
2018-07-06T11:06:06.122Z,973.5
2018-07-06T11:07:07.807Z,973.3
2018-07-06T11:08:09.496Z,973.5
2018-07-06T11:09:11.184Z,973.6
2018-07-06T11:10:12.870Z,973.5
2018-07-06T11:11:14.549Z,973.5
2018-07-06T11:12:16.980Z,973.5
2018-07-06T11:13:18.659Z,973.5
2018-07-06T11:14:21.328Z,973.2
2018-07-06T11:15:21.989Z,973.4
2018-07-06T11:16:23.670Z,973.2
2018-07-06T11:17:25.394Z,973.5
2018-07-06T11:18:27.939Z,973.4
2018-07-06T11:19:29.613Z,973.5
2018-07-06T11:20:31.317Z,973.4
2018-07-06T11:21:33.010Z,973.5
2018-07-06T11:22:34.677Z,973.4
2018-07-06T11:23:36.742Z,973.5
2018-07-06T11:24:38.558Z,973.4
2018-07-06T11:25:40.214Z,973.4
2018-07-06T11:26:42.441Z,973.4
2018-07-06T11:27:44.202Z,973.5
2018-07-06T11:28:45.875Z,973.5
2018-07-06T11:29:47.555Z,973.3
2018-07-06T11:30:49.237Z,973.5
2018-07-06T11:31:50.927Z,973.6
2018-07-06T11:32:52.618Z,973.5
2018-07-06T11:33:54.294Z,973.6
2018-07-06T11:34:55.992Z,973.5
2018-07-06T11:35:57.672Z,973.6
2018-07-06T11:36:59.358Z,973.7
2018-07-06T11:38:01.112Z,973.6
2018-07-06T11:39:02.716Z,973.5
2018-07-06T11:40:04.464Z,973.5
2018-07-06T11:41:06.188Z,973.7
2018-07-06T11:42:07.876Z,973.5
2018-07-06T11:43:09.564Z,973.5
2018-07-06T11:44:11.237Z,973.4
2018-07-06T11:45:12.947Z,973.6
2018-07-06T11:46:14.636Z,973.6
2018-07-06T11:47:16.275Z,973.3
2018-07-06T11:48:17.956Z,973.5
2018-07-06T11:49:19.637Z,973.7
2018-07-06T11:50:21.377Z,973.4
2018-07-06T11:51:23.014Z,973.5
2018-07-06T11:52:24.693Z,973.6
2018-07-06T11:53:26.393Z,973.5
2018-07-06T11:54:28.944Z,973.6
2018-07-06T11:55:30.624Z,973.5
2018-07-06T11:56:32.319Z,973.4
2018-07-06T11:57:33.995Z,973.7
2018-07-06T11:58:35.671Z,973.3
2018-07-06T11:59:37.363Z,973.5
2018-07-06T12:00:39.043Z,973.6
2018-07-06T12:01:40.723Z,973.6
2018-07-06T12:02:42.398Z,973.5
2018-07-06T12:03:45.209Z,973.6
2018-07-06T12:04:46.892Z,973.5
2018-07-06T12:05:49.418Z,973.5
2018-07-06T12:06:51.096Z,973.5
2018-07-06T12:07:52.768Z,973.7
2018-07-06T12:08:54.475Z,973.8
2018-07-06T12:09:56.159Z,973.8
2018-07-06T12:10:57.846Z,973.4
2018-07-06T12:11:59.517Z,973.3
2018-07-06T12:13:01.194Z,973.6
2018-07-06T12:14:02.881Z,973.8
2018-07-06T12:15:04.563Z,973.5
2018-07-06T12:16:06.270Z,973.6
2018-07-06T12:17:07.957Z,973.6
2018-07-06T12:18:09.647Z,973.9
2018-07-06T12:19:11.320Z,973.7
2018-07-06T12:20:13.007Z,973.4
2018-07-06T12:21:14.767Z,973.8
2018-07-06T12:22:16.329Z,973.6
2018-07-06T12:23:18.612Z,973.3
2018-07-06T12:24:20.283Z,973.1
2018-07-06T12:25:21.966Z,973.3
2018-07-06T12:26:23.651Z,973.7
2018-07-06T12:27:25.334Z,973.2
2018-07-06T12:28:27.023Z,973.5
2018-07-06T12:29:28.697Z,973.6
2018-07-06T12:30:30.374Z,973.8
2018-07-06T12:31:32.044Z,973.4
2018-07-06T12:32:33.724Z,973.4
2018-07-06T12:33:35.405Z,973.6
2018-07-06T12:34:37.092Z,973.5
2018-07-06T12:35:38.788Z,973.6
2018-07-06T12:36:40.487Z,973.6
2018-07-06T12:37:42.153Z,973.6
2018-07-06T12:38:43.828Z,973.5
2018-07-06T12:39:45.502Z,973.7
2018-07-06T12:40:47.895Z,973.7
2018-07-06T12:41:49.570Z,973.3
2018-07-06T12:42:51.254Z,973.8
2018-07-06T12:43:52.926Z,973.8
2018-07-06T12:44:54.602Z,973.2
2018-07-06T12:45:56.279Z,973.7
2018-07-06T12:46:57.962Z,973.7
2018-07-06T12:47:59.649Z,973.2
2018-07-06T12:49:01.344Z,973.6
2018-07-06T12:50:03.023Z,973.6
2018-07-06T12:51:05.260Z,973.6
2018-07-06T12:52:06.965Z,973.7
2018-07-06T12:53:08.641Z,973.8
2018-07-06T12:54:10.332Z,973.5
2018-07-06T12:55:12.011Z,973.6
2018-07-06T12:56:13.692Z,974.0
2018-07-06T12:57:15.366Z,973.3
2018-07-06T12:58:17.106Z,973.3
2018-07-06T12:59:19.606Z,973.8
2018-07-06T13:00:21.293Z,973.8
2018-07-06T13:01:22.971Z,973.9
2018-07-06T13:02:24.643Z,973.1
2018-07-06T13:03:26.318Z,973.9
2018-07-06T13:04:27.995Z,973.3
2018-07-06T13:05:29.673Z,973.7
2018-07-06T13:06:31.352Z,973.1
2018-07-06T13:07:33.029Z,973.1
2018-07-06T13:08:34.709Z,974.1
2018-07-06T13:09:36.385Z,974.3
2018-07-06T13:10:38.078Z,974.3
2018-07-06T13:11:39.768Z,974.2
2018-07-06T13:12:41.439Z,974.1
2018-07-06T13:13:43.115Z,974.1
2018-07-06T13:14:44.798Z,974.1
2018-07-06T13:15:46.524Z,974.0
2018-07-06T13:16:48.213Z,974.2
2018-07-06T13:17:49.892Z,974.4
2018-07-06T13:18:51.565Z,974.5
2018-07-06T13:19:53.265Z,974.4
2018-07-06T13:20:54.937Z,974.7
2018-07-06T13:21:56.615Z,974.8
2018-07-06T13:22:58.297Z,974.7
2018-07-06T13:23:59.977Z,974.7
2018-07-06T13:25:01.665Z,974.8
2018-07-06T13:26:03.349Z,973.6
2018-07-06T13:27:05.554Z,973.9
2018-07-06T13:28:08.125Z,974.5
2018-07-06T13:29:09.805Z,973.7
2018-07-06T13:30:11.475Z,973.3
2018-07-06T13:31:13.155Z,973.3
2018-07-06T13:32:14.837Z,973.0
2018-07-06T13:33:16.520Z,973.1
2018-07-06T13:34:19.001Z,973.2